Time;durP1;ratioP1;P1;durP2;ratioP2;P2;SDS_P1;SDS_P2;PMS_P1;PMS_P2;Temp;Humidity;BMP_temperature;BMP_pressure;BME280_temperature;BME280_humidity;BME280_pressure;Samples;Min_cycle;Max_cycle;Signal;HPM_P1;HPM_P2
2022/03/17 00:00:02;;;;;;;;;;;;;;;;;;5055248;28;20287;-22
2022/03/17 00:02:28;;;;;;;;;;;;;;;;;;5055588;28;19909;-23
2022/03/17 00:04:54;;;;;;;;;;;;;;;;;;5072530;28;20259;-26
2022/03/17 00:07:20;;;;;;;;;;;;;;;;;;5075217;28;19908;-22
2022/03/17 00:09:46;;;;;;;;;;;;;;;;;;5075698;28;19912;-22
2022/03/17 00:12:13;;;;;;;;;;;;;;;;;;5075093;28;19948;-25
2022/03/17 00:14:39;;;;;;;;;;;;;;;;;;5075488;28;20340;-22
2022/03/17 00:17:05;;;;;;;;;;;;;;;;;;5075379;28;20236;-22
2022/03/17 00:19:32;;;;;;;;;;;;;;;;;;5075384;28;19967;-24
2022/03/17 00:21:58;;;;;;;;;;;;;;;;;;5074988;28;19999;-22
2022/03/17 00:24:25;;;;;;;;;;;;;;;;;;5075032;28;19908;-24
2022/03/17 00:26:51;;;;;;;;;;;;;;;;;;5074980;28;20013;-22
2022/03/17 00:29:19;;;;;;;;;;;;;;;;;;5075003;28;19955;-26
2022/03/17 00:31:45;;;;;;;;;;;;;;;;;;5075722;28;19913;-23
2022/03/17 00:34:11;;;;;;;;;;;;;;;;;;5078898;28;19916;-22
2022/03/17 00:36:37;;;;;;;;;;;;;;;;;;5079045;28;19908;-22
2022/03/17 00:39:04;;;;;;;;;;;;;;;;;;5079027;28;19926;-22
2022/03/17 00:41:30;;;;;;;;;;;;;;;;;;5078871;28;19912;-22
2022/03/17 00:43:56;;;;;;;;;;;;;;;;;;5078820;28;19908;-24
2022/03/17 00:46:22;;;;;;;;;;;;;;;;;;5078830;28;19920;-22
2022/03/17 00:48:48;;;;;;;;;;;;;;;;;;5061147;28;19909;-24
2022/03/17 00:51:15;;;;;;;;;;;;;;;;;;5078731;28;20014;-23
2022/03/17 00:53:41;;;;;;;;;;;;;;;;;;5078795;28;19917;-21
2022/03/17 00:56:07;;;;;;;;;;;;;;;;;;5079230;28;20320;-23
2022/03/17 00:58:33;;;;;;;;;;;;;;;;;;5078614;28;19928;-22
2022/03/17 01:00:59;;;;;;;;;;;;;;;;;;5078573;28;20252;-22
2022/03/17 01:03:26;;;;;;;;;;;;;;;;;;5078176;28;19917;-22
2022/03/17 01:05:53;;;;;;;;;;;;;;;;;;5079076;28;19912;-22
2022/03/17 01:08:19;;;;;;;;;;;;;;;;;;5078412;28;19912;-21
2022/03/17 01:10:45;;;;;;;;;;;;;;;;;;5078361;28;19912;-22
2022/03/17 01:13:11;;;;;;;;;;;;;;;;;;5078223;28;19908;-22
2022/03/17 01:15:37;;;;;;;;;;;;;;;;;;5078265;28;19912;-22
2022/03/17 01:18:03;;;;;;;;;;;;;;;;;;5078503;28;19919;-22
2022/03/17 01:20:29;;;;;;;;;;;;;;;;;;5078488;28;19913;-21
2022/03/17 01:22:55;;;;;;;;;;;;;;;;;;5078080;28;20007;-21
2022/03/17 01:25:21;;;;;;;;;;;;;;;;;;5078033;28;19912;-22
2022/03/17 01:27:47;;;;;;;;;;;;;;;;;;5078335;28;19908;-22
2022/03/17 01:30:13;;;;;;;;;;;;;;;;;;5078297;28;20258;-21
2022/03/17 01:32:39;;;;;;;;;;;;;;;;;;5078186;28;19909;-22
2022/03/17 01:35:07;;;;;;;;;;;;;;;;;;5077883;28;20317;-22
2022/03/17 01:37:33;;;;;;;;;;;;;;;;;;5077818;28;20362;-22
2022/03/17 01:39:59;;;;;;;;;;;;;;;;;;5078427;28;20397;-21
2022/03/17 01:42:25;;;;;;;;;;;;;;;;;;5077658;28;19913;-21
2022/03/17 01:44:51;;;;;;;;;;;;;;;;;;5076815;28;19916;-22
2022/03/17 01:47:26;;;;;;;;;;;;;;;;;;5077801;28;19962;-22
2022/03/17 01:49:52;;;;;;;;;;;;;;;;;;5078229;28;19948;-22
2022/03/17 01:52:18;;;;;;;;;;;;;;;;;;5077830;28;19964;-21
2022/03/17 01:54:44;;;;;;;;;;;;;;;;;;5077473;28;19916;-22
2022/03/17 01:57:10;;;;;;;;;;;;;;;;;;5077561;28;19991;-22
2022/03/17 01:59:36;;;;;;;;;;;;;;;;;;5077428;28;19912;-22
2022/03/17 02:02:02;;;;;;;;;;;;;;;;;;5077363;28;19908;-22
2022/03/17 02:04:28;;;;;;;;;;;;;;;;;;5077404;28;20347;-22
2022/03/17 02:06:55;;;;;;;;;;;;;;;;;;5077396;28;19914;-23
2022/03/17 02:09:24;;;;;;;;;;;;;;;;;;5077597;28;20050;-21
2022/03/17 02:14:35;;;;;;;;;;;;;;;;;;5077221;28;20073;-21
2022/03/17 02:17:01;;;;;;;;;;;;;;;;;;5077204;28;19958;-24
2022/03/17 02:19:27;;;;;;;;;;;;;;;;;;5077393;28;19985;-21
2022/03/17 02:21:53;;;;;;;;;;;;;;;;;;5077502;28;19916;-25
2022/03/17 02:27:05;;;;;;;;;;;;;;;;;;5077038;28;19924;-23
2022/03/17 02:29:31;;;;;;;;;;;;;;;;;;5077199;28;20330;-23
2022/03/17 02:31:57;;;;;;;;;;;;;;;;;;5077030;28;19921;-21
2022/03/17 02:34:23;;;;;;;;;;;;;;;;;;5077307;28;19924;-22
2022/03/17 02:36:49;;;;;;;;;;;;;;;;;;5076762;28;19912;-22
2022/03/17 02:39:15;;;;;;;;;;;;;;;;;;5076933;28;19981;-22
2022/03/17 02:41:41;;;;;;;;;;;;;;;;;;5077220;28;19916;-33
2022/03/17 02:44:07;;;;;;;;;;;;;;;;;;5076601;28;19913;-22
2022/03/17 02:46:33;;;;;;;;;;;;;;;;;;5076811;28;20263;-22
2022/03/17 02:48:59;;;;;;;;;;;;;;;;;;5058986;28;19919;-22
2022/03/17 02:51:26;;;;;;;;;;;;;;;;;;5076488;28;20259;-22
2022/03/17 02:53:52;;;;;;;;;;;;;;;;;;5076390;28;19916;-23
2022/03/17 02:56:17;;;;;;;;;;;;;;;;;;5076534;28;20316;-21
2022/03/17 02:58:43;;;;;;;;;;;;;;;;;;5076871;28;19966;-22
2022/03/17 03:01:10;;;;;;;;;;;;;;;;;;5076616;28;19935;-22
2022/03/17 03:03:35;;;;;;;;;;;;;;;;;;5075944;28;20366;-22
2022/03/17 03:06:01;;;;;;;;;;;;;;;;;;5076448;28;19962;-22
2022/03/17 03:08:27;;;;;;;;;;;;;;;;;;5076150;28;20323;-23
2022/03/17 03:10:53;;;;;;;;;;;;;;;;;;5076868;28;19977;-22
2022/03/17 03:13:20;;;;;;;;;;;;;;;;;;5076095;28;20008;-22
2022/03/17 03:15:46;;;;;;;;;;;;;;;;;;5075972;28;19915;-22
2022/03/17 03:18:12;;;;;;;;;;;;;;;;;;5075953;28;20003;-22
2022/03/17 03:20:38;;;;;;;;;;;;;;;;;;5075904;28;19916;-24
2022/03/17 03:23:04;;;;;;;;;;;;;;;;;;5075900;28;19919;-21
2022/03/17 03:25:30;;;;;;;;;;;;;;;;;;5075729;28;19912;-21
2022/03/17 03:27:56;;;;;;;;;;;;;;;;;;5075792;28;19909;-22
2022/03/17 03:30:23;;;;;;;;;;;;;;;;;;5075781;28;19919;-21
2022/03/17 03:32:49;;;;;;;;;;;;;;;;;;5075875;28;19912;-21
2022/03/17 03:38:00;;;;;;;;;;;;;;;;;;5075712;28;19919;-22
2022/03/17 03:40:26;;;;;;;;;;;;;;;;;;5075478;28;19913;-21
2022/03/17 03:42:52;;;;;;;;;;;;;;;;;;5075469;28;19908;-21
2022/03/17 03:45:18;;;;;;;;;;;;;;;;;;5057838;28;19924;-25
2022/03/17 03:47:44;;;;;;;;;;;;;;;;;;5075507;28;20000;-23
2022/03/17 03:50:10;;;;;;;;;;;;;;;;;;5075973;28;19959;-22
2022/03/17 03:52:36;;;;;;;;;;;;;;;;;;5075364;28;20304;-27
2022/03/17 03:55:02;;;;;;;;;;;;;;;;;;5075914;28;19923;-21
2022/03/17 03:57:28;;;;;;;;;;;;;;;;;;5075322;28;19912;-22
2022/03/17 03:59:55;;;;;;;;;;;;;;;;;;5075274;28;19999;-21
2022/03/17 04:02:21;;;;;;;;;;;;;;;;;;5075209;28;19919;-27
2022/03/17 04:04:47;;;;;;;;;;;;;;;;;;5074932;28;19920;-21
2022/03/17 04:07:13;;;;;;;;;;;;;;;;;;5074993;28;19916;-23
2022/03/17 04:09:39;;;;;;;;;;;;;;;;;;5075219;28;19991;-22
2022/03/17 04:12:06;;;;;;;;;;;;;;;;;;5075054;28;19920;-22
2022/03/17 04:14:31;;;;;;;;;;;;;;;;;;5075011;28;20347;-24
2022/03/17 04:16:57;;;;;;;;;;;;;;;;;;5075718;28;19909;-23
2022/03/17 04:19:24;;;;;;;;;;;;;;;;;;5057372;28;19997;-22
2022/03/17 04:21:50;;;;;;;;;;;;;;;;;;5075007;28;19909;-22
2022/03/17 04:24:16;;;;;;;;;;;;;;;;;;5075024;28;19939;-24
2022/03/17 04:26:42;;;;;;;;;;;;;;;;;;5075345;28;19934;-26
2022/03/17 04:29:09;;;;;;;;;;;;;;;;;;5075255;28;19912;-24
2022/03/17 04:31:35;;;;;;;;;;;;;;;;;;5074903;28;19908;-22
2022/03/17 04:34:01;;;;;;;;;;;;;;;;;;5074795;28;19917;-21
2022/03/17 04:36:27;;;;;;;;;;;;;;;;;;5075446;28;19993;-22
2022/03/17 04:38:53;;;;;;;;;;;;;;;;;;5074894;28;20065;-22
2022/03/17 04:41:19;;;;;;;;;;;;;;;;;;5074822;28;19912;-22
2022/03/17 04:43:46;;;;;;;;;;;;;;;;;;5074733;28;19908;-21
2022/03/17 04:46:12;;;;;;;;;;;;;;;;;;5074748;28;19912;-24
2022/03/17 04:48:38;;;;;;;;;;;;;;;;;;5074834;28;19923;-22
2022/03/17 04:51:03;;;;;;;;;;;;;;;;;;5075303;28;20016;-22
2022/03/17 04:53:32;;;;;;;;;;;;;;;;;;5075178;28;19952;-26
2022/03/17 04:55:58;;;;;;;;;;;;;;;;;;5056939;28;19938;-25
2022/03/17 04:58:24;;;;;;;;;;;;;;;;;;5075144;28;19974;-22
2022/03/17 05:00:52;;;;;;;;;;;;;;;;;;5074637;28;19908;-24
2022/03/17 05:03:19;;;;;;;;;;;;;;;;;;5074224;28;20355;-22
2022/03/17 05:05:45;;;;;;;;;;;;;;;;;;5056842;28;19920;-22
2022/03/17 05:08:11;;;;;;;;;;;;;;;;;;5074996;28;19934;-20
2022/03/17 05:10:37;;;;;;;;;;;;;;;;;;5074756;28;19916;-23
2022/03/17 05:13:03;;;;;;;;;;;;;;;;;;5074540;28;19920;-22
2022/03/17 05:15:28;;;;;;;;;;;;;;;;;;5074347;28;19913;-24
2022/03/17 05:17:54;;;;;;;;;;;;;;;;;;5056641;28;20369;-22
2022/03/17 05:20:22;;;;;;;;;;;;;;;;;;5077561;28;19913;-22
2022/03/17 05:22:48;;;;;;;;;;;;;;;;;;5077886;28;20312;-23
2022/03/17 05:25:14;;;;;;;;;;;;;;;;;;5078011;28;19924;-23
2022/03/17 05:27:40;;;;;;;;;;;;;;;;;;5078017;28;19908;-21
2022/03/17 05:30:06;;;;;;;;;;;;;;;;;;5060180;28;19938;-22
2022/03/17 05:32:32;;;;;;;;;;;;;;;;;;5078109;28;19908;-22
2022/03/17 05:34:58;;;;;;;;;;;;;;;;;;5059924;28;20339;-22
2022/03/17 05:37:24;;;;;;;;;;;;;;;;;;5077664;28;19908;-22
2022/03/17 05:39:50;;;;;;;;;;;;;;;;;;5078121;28;19931;-25
2022/03/17 05:42:16;;;;;;;;;;;;;;;;;;5077622;28;19913;-22
2022/03/17 05:44:42;;;;;;;;;;;;;;;;;;5059948;28;19923;-23
2022/03/17 05:47:08;;;;;;;;;;;;;;;;;;5077702;28;20015;-22
2022/03/17 05:49:34;;;;;;;;;;;;;;;;;;5078056;28;19977;-22
2022/03/17 05:52:00;;;;;;;;;;;;;;;;;;5059826;28;19912;-22
2022/03/17 05:54:26;;;;;;;;;;;;;;;;;;5077661;28;20228;-23
2022/03/17 05:56:52;;;;;;;;;;;;;;;;;;5078000;28;19955;-23
2022/03/17 05:59:18;;;;;;;;;;;;;;;;;;5078182;28;19908;-24
2022/03/17 06:04:22;;;;;;;;;;;;;;;;;;5096088;28;20356;-31
2022/03/17 06:06:49;;;;;;;;;;;;;;;;;;5097639;28;19912;-30
2022/03/17 06:09:15;;;;;;;;;;;;;;;;;;5097453;28;19912;-31
2022/03/17 06:11:41;;;;;;;;;;;;;;;;;;5097881;28;19912;-31
2022/03/17 06:14:07;;;;;;;;;;;;;;;;;;5097938;28;19912;-31
2022/03/17 06:16:33;;;;;;;;;;;;;;;;;;5097548;28;19927;-32
2022/03/17 06:18:59;;;;;;;;;;;;;;;;;;5097106;28;20010;-32
2022/03/17 06:21:25;;;;;;;;;;;;;;;;;;5097089;28;19912;-31
2022/03/17 06:23:51;;;;;;;;;;;;;;;;;;5097216;28;19915;-31
2022/03/17 06:26:17;;;;;;;;;;;;;;;;;;5097079;28;19913;-31
2022/03/17 06:28:43;;;;;;;;;;;;;;;;;;5097066;28;19927;-31
2022/03/17 06:31:09;;;;;;;;;;;;;;;;;;5096494;28;19986;-33
2022/03/17 06:33:35;;;;;;;;;;;;;;;;;;5097206;28;19916;-31
2022/03/17 06:36:01;;;;;;;;;;;;;;;;;;5096927;28;19909;-31
2022/03/17 06:38:27;;;;;;;;;;;;;;;;;;5097521;28;19947;-32
2022/03/17 06:40:53;;;;;;;;;;;;;;;;;;5096845;28;19916;-32
2022/03/17 06:43:19;;;;;;;;;;;;;;;;;;5096959;28;19908;-32
2022/03/17 06:45:45;;;;;;;;;;;;;;;;;;5097447;28;19991;-33
2022/03/17 06:48:11;;;;;;;;;;;;;;;;;;5096815;28;20030;-32
2022/03/17 06:50:37;;;;;;;;;;;;;;;;;;5078793;28;19980;-32
2022/03/17 06:53:03;;;;;;;;;;;;;;;;;;5096702;28;20019;-31
2022/03/17 06:55:31;;;;;;;;;;;;;;;;;;5078613;28;19927;-33
2022/03/17 06:57:57;;;;;;;;;;;;;;;;;;5096631;28;19922;-31
2022/03/17 07:00:23;;;;;;;;;;;;;;;;;;5096774;28;20407;-32
2022/03/17 07:02:49;;;;;;;;;;;;;;;;;;5096199;28;19920;-33
2022/03/17 07:05:15;;;;;;;;;;;;;;;;;;5096902;28;19958;-32
2022/03/17 07:07:42;;;;;;;;;;;;;;;;;;5096275;28;19952;-31
2022/03/17 07:10:08;;;;;;;;;;;;;;;;;;5096427;28;20350;-33
2022/03/17 07:12:34;;;;;;;;;;;;;;;;;;5096236;28;19970;-33
2022/03/17 07:15:00;;;;;;;;;;;;;;;;;;5095996;28;19924;-32
2022/03/17 07:17:26;;;;;;;;;;;;;;;;;;5096132;28;20342;-32
2022/03/17 07:19:59;;;;;;;;;;;;;;;;;;5096449;28;20231;-32
2022/03/17 07:22:25;;;;;;;;;;;;;;;;;;5096271;28;20387;-31
2022/03/17 07:24:51;;;;;;;;;;;;;;;;;;5096050;28;20002;-31
2022/03/17 07:27:17;;;;;;;;;;;;;;;;;;5096212;28;20009;-33
2022/03/17 07:29:44;;;;;;;;;;;;;;;;;;5095941;28;20228;-32
2022/03/17 07:32:10;;;;;;;;;;;;;;;;;;5096350;28;19912;-31
2022/03/17 07:34:36;;;;;;;;;;;;;;;;;;5095768;28;20330;-32
2022/03/17 07:37:02;;;;;;;;;;;;;;;;;;5096150;28;19908;-32
2022/03/17 07:39:28;;;;;;;;;;;;;;;;;;5095804;28;19954;-31
2022/03/17 07:41:54;;;;;;;;;;;;;;;;;;5094915;28;19916;-31
2022/03/17 07:44:20;;;;;;;;;;;;;;;;;;5095657;28;19912;-32
2022/03/17 07:46:48;;;;;;;;;;;;;;;;;;5096204;28;20299;-31
2022/03/17 07:49:14;;;;;;;;;;;;;;;;;;5095881;28;19927;-30
2022/03/17 07:51:40;;;;;;;;;;;;;;;;;;5095508;28;19923;-31
2022/03/17 07:54:07;;;;;;;;;;;;;;;;;;5077719;28;20237;-31
2022/03/17 07:56:33;;;;;;;;;;;;;;;;;;5096304;28;19939;-32
2022/03/17 07:58:59;;;;;;;;;;;;;;;;;;5096129;28;19924;-32
2022/03/17 08:01:25;;;;;;;;;;;;;;;;;;5095755;28;19964;-32
2022/03/17 08:03:51;;;;;;;;;;;;;;;;;;5095173;28;20411;-32
2022/03/17 08:06:18;;;;;;;;;;;;;;;;;;5095705;28;19912;-31
2022/03/17 08:08:46;;;;;;;;;;;;;;;;;;5095406;28;19912;-32
2022/03/17 08:11:12;;;;;;;;;;;;;;;;;;5095329;28;19958;-33
2022/03/17 08:13:38;;;;;;;;;;;;;;;;;;5095176;28;19927;-32
2022/03/17 08:16:04;;;;;;;;;;;;;;;;;;5095324;28;19916;-32
2022/03/17 08:18:30;;;;;;;;;;;;;;;;;;5095382;28;20002;-32
2022/03/17 08:20:56;;;;;;;;;;;;;;;;;;5077316;28;19918;-33
2022/03/17 08:23:22;;;;;;;;;;;;;;;;;;5095248;28;20003;-32
2022/03/17 08:25:49;;;;;;;;;;;;;;;;;;5095219;28;20246;-31
2022/03/17 08:28:17;;;;;;;;;;;;;;;;;;5095341;28;19966;-32
2022/03/17 08:30:43;;;;;;;;;;;;;;;;;;5077266;28;19908;-32
2022/03/17 08:33:09;;;;;;;;;;;;;;;;;;5095017;28;19969;-37
2022/03/17 08:35:35;;;;;;;;;;;;;;;;;;5095095;28;19912;-33
2022/03/17 08:38:01;;;;;;;;;;;;;;;;;;5095364;28;19969;-31
2022/03/17 08:40:27;;;;;;;;;;;;;;;;;;5094937;28;20361;-31
2022/03/17 08:42:53;;;;;;;;;;;;;;;;;;5094777;28;19908;-31
2022/03/17 08:50:48;;;;;;;;;;;;;;;;;;5095026;28;19919;-32
2022/03/17 08:53:14;;;;;;;;;;;;;;;;;;5096697;28;19923;-33
2022/03/17 08:55:40;;;;;;;;;;;;;;;;;;5099177;28;19920;-32
2022/03/17 08:58:06;;;;;;;;;;;;;;;;;;5098748;28;19986;-33
2022/03/17 09:00:34;;;;;;;;;;;;;;;;;;5081533;28;19914;-31
2022/03/17 09:03:01;;;;;;;;;;;;;;;;;;5098403;28;20023;-31
2022/03/17 09:05:27;;;;;;;;;;;;;;;;;;5098833;28;20351;-32
2022/03/17 09:07:53;;;;;;;;;;;;;;;;;;5098762;28;19969;-31
2022/03/17 09:10:22;;;;;;;;;;;;;;;;;;5080695;28;19912;-33
2022/03/17 09:12:48;;;;;;;;;;;;;;;;;;5080738;28;19912;-32
2022/03/17 09:15:14;;;;;;;;;;;;;;;;;;5098411;28;20018;-33
2022/03/17 09:17:40;;;;;;;;;;;;;;;;;;5098683;28;19908;-32
2022/03/17 09:20:08;;;;;;;;;;;;;;;;;;5098385;28;19908;-36
2022/03/17 09:22:34;;;;;;;;;;;;;;;;;;5098511;28;19999;-33
2022/03/17 09:25:00;;;;;;;;;;;;;;;;;;5080492;28;20001;-33
2022/03/17 09:27:28;;;;;;;;;;;;;;;;;;5098218;28;19923;-36
2022/03/17 09:29:54;;;;;;;;;;;;;;;;;;5098064;28;19944;-33
2022/03/17 09:32:21;;;;;;;;;;;;;;;;;;5098057;28;19923;-34
2022/03/17 09:34:47;;;;;;;;;;;;;;;;;;5097862;28;19916;-33
2022/03/17 09:37:13;;;;;;;;;;;;;;;;;;5098317;28;19916;-33
2022/03/17 09:39:43;;;;;;;;;;;;;;;;;;5097912;28;19940;-32
2022/03/17 09:42:09;;;;;;;;;;;;;;;;;;5080159;28;19915;-35
2022/03/17 09:44:36;;;;;;;;;;;;;;;;;;5098218;28;19928;-33
2022/03/17 09:47:03;;;;;;;;;;;;;;;;;;5079957;28;19922;-33
2022/03/17 09:49:29;;;;;;;;;;;;;;;;;;5097927;28;19908;-34
2022/03/17 09:51:57;;;;;;;;;;;;;;;;;;5097791;28;20326;-35
2022/03/17 09:54:23;;;;;;;;;;;;;;;;;;5079836;28;19977;-34
2022/03/17 09:56:49;;;;;;;;;;;;;;;;;;5098291;28;19908;-34
2022/03/17 09:59:15;;;;;;;;;;;;;;;;;;5097674;28;19912;-32
2022/03/17 10:01:41;;;;;;;;;;;;;;;;;;5097627;28;19908;-33
2022/03/17 10:04:07;;;;;;;;;;;;;;;;;;5096891;28;19920;-32
2022/03/17 10:06:33;;;;;;;;;;;;;;;;;;5079498;28;19908;-32
2022/03/17 10:08:59;;;;;;;;;;;;;;;;;;5079499;28;19923;-33
2022/03/17 10:11:25;;;;;;;;;;;;;;;;;;5097641;28;20254;-33
2022/03/17 10:13:54;;;;;;;;;;;;;;;;;;5097444;28;19969;-33
2022/03/17 10:16:20;;;;;;;;;;;;;;;;;;5097484;28;19908;-34
2022/03/17 10:18:46;;;;;;;;;;;;;;;;;;5097688;28;19912;-32
2022/03/17 10:21:12;;;;;;;;;;;;;;;;;;5097323;28;19912;-35
2022/03/17 10:23:38;;;;;;;;;;;;;;;;;;5079343;28;19939;-33
2022/03/17 10:26:04;;;;;;;;;;;;;;;;;;5097055;28;19927;-37
2022/03/17 10:28:30;;;;;;;;;;;;;;;;;;5097049;28;19919;-36
2022/03/17 10:30:58;;;;;;;;;;;;;;;;;;5097331;28;19997;-34
2022/03/17 10:33:28;;;;;;;;;;;;;;;;;;5096995;28;20346;-34
2022/03/17 10:35:54;;;;;;;;;;;;;;;;;;5097156;28;20254;-36
2022/03/17 10:38:22;;;;;;;;;;;;;;;;;;5079304;28;19919;-34
2022/03/17 10:40:48;;;;;;;;;;;;;;;;;;5096824;28;19955;-34
2022/03/17 10:43:15;;;;;;;;;;;;;;;;;;5096850;28;20358;-33
2022/03/17 10:45:41;;;;;;;;;;;;;;;;;;5097370;28;19913;-34
2022/03/17 10:48:07;;;;;;;;;;;;;;;;;;5078959;28;19919;-34
2022/03/17 10:50:33;;;;;;;;;;;;;;;;;;5097205;28;19923;-34
2022/03/17 10:53:00;;;;;;;;;;;;;;;;;;5096949;28;19919;-33
2022/03/17 10:55:26;;;;;;;;;;;;;;;;;;5079067;28;19949;-34
2022/03/17 10:57:52;;;;;;;;;;;;;;;;;;5078807;28;20073;-35
2022/03/17 11:00:19;;;;;;;;;;;;;;;;;;5096480;28;19913;-32
2022/03/17 11:02:49;;;;;;;;;;;;;;;;;;5096342;28;19919;-33
2022/03/17 11:05:15;;;;;;;;;;;;;;;;;;5096516;28;20011;-36
2022/03/17 11:07:41;;;;;;;;;;;;;;;;;;5096296;28;19944;-32
2022/03/17 11:10:07;;;;;;;;;;;;;;;;;;5096506;28;20030;-33
2022/03/17 11:12:34;;;;;;;;;;;;;;;;;;5078340;28;19916;-33
2022/03/17 11:15:01;;;;;;;;;;;;;;;;;;5096162;28;19912;-33
2022/03/17 11:17:27;;;;;;;;;;;;;;;;;;5095140;28;20254;-35
2022/03/17 11:19:53;;;;;;;;;;;;;;;;;;5096708;28;19919;-32
2022/03/17 11:22:19;;;;;;;;;;;;;;;;;;5096416;28;20295;-32
2022/03/17 11:24:45;;;;;;;;;;;;;;;;;;5096745;28;19958;-31
2022/03/17 11:27:11;;;;;;;;;;;;;;;;;;5078206;28;20296;-34
2022/03/17 11:29:37;;;;;;;;;;;;;;;;;;5095945;28;20236;-32
2022/03/17 11:32:05;;;;;;;;;;;;;;;;;;5078059;28;19912;-32
2022/03/17 11:34:31;;;;;;;;;;;;;;;;;;5095842;28;19927;-35
2022/03/17 11:36:57;;;;;;;;;;;;;;;;;;5095868;28;20357;-33
2022/03/17 11:39:23;;;;;;;;;;;;;;;;;;5095822;28;19912;-33
2022/03/17 11:41:52;;;;;;;;;;;;;;;;;;5095616;28;20269;-35
2022/03/17 11:44:18;;;;;;;;;;;;;;;;;;5095646;28;20254;-32
2022/03/17 11:46:44;;;;;;;;;;;;;;;;;;5096103;28;19919;-33
2022/03/17 11:49:10;;;;;;;;;;;;;;;;;;5077800;28;19908;-32
2022/03/17 11:51:36;;;;;;;;;;;;;;;;;;5095870;28;20292;-33
2022/03/17 11:54:02;;;;;;;;;;;;;;;;;;5095763;28;19916;-31
2022/03/17 11:56:28;;;;;;;;;;;;;;;;;;5095557;28;19912;-33
2022/03/17 11:58:54;;;;;;;;;;;;;;;;;;5095539;28;19908;-32
2022/03/17 12:01:22;;;;;;;;;;;;;;;;;;5095295;28;20002;-34
2022/03/17 12:03:48;;;;;;;;;;;;;;;;;;5095248;28;19982;-34
2022/03/17 12:06:14;;;;;;;;;;;;;;;;;;5095382;28;19912;-33
2022/03/17 12:08:43;;;;;;;;;;;;;;;;;;5095655;28;20030;-33
2022/03/17 12:11:09;;;;;;;;;;;;;;;;;;5095552;28;20353;-32
2022/03/17 12:13:36;;;;;;;;;;;;;;;;;;5095421;28;19916;-32
2022/03/17 12:16:02;;;;;;;;;;;;;;;;;;5095240;28;20011;-32
2022/03/17 12:18:28;;;;;;;;;;;;;;;;;;5095437;28;20017;-33
2022/03/17 12:20:54;;;;;;;;;;;;;;;;;;5095225;28;19912;-33
2022/03/17 12:23:20;;;;;;;;;;;;;;;;;;5095073;28;19915;-32
2022/03/17 12:25:46;;;;;;;;;;;;;;;;;;5077324;28;19912;-32
2022/03/17 12:28:15;;;;;;;;;;;;;;;;;;5094671;28;19909;-33
2022/03/17 12:30:42;;;;;;;;;;;;;;;;;;5095196;28;19947;-32
2022/03/17 12:33:08;;;;;;;;;;;;;;;;;;5095192;28;20342;-31
2022/03/17 12:35:35;;;;;;;;;;;;;;;;;;5095676;28;19926;-32
2022/03/17 12:38:01;;;;;;;;;;;;;;;;;;5095035;28;19934;-32
2022/03/17 12:40:27;;;;;;;;;;;;;;;;;;5077177;28;20014;-31
2022/03/17 12:42:53;;;;;;;;;;;;;;;;;;5095228;28;19958;-31
2022/03/17 12:45:20;;;;;;;;;;;;;;;;;;5095025;28;19912;-31
2022/03/17 12:47:46;;;;;;;;;;;;;;;;;;5094917;28;19919;-31
2022/03/17 12:50:12;;;;;;;;;;;;;;;;;;5094940;28;19912;-35
2022/03/17 12:52:40;;;;;;;;;;;;;;;;;;5095113;28;19939;-32
2022/03/17 12:55:06;;;;;;;;;;;;;;;;;;5094743;28;19916;-33
2022/03/17 12:57:32;;;;;;;;;;;;;;;;;;5094944;28;19914;-33
2022/03/17 12:59:58;;;;;;;;;;;;;;;;;;5094807;28;19939;-32
2022/03/17 13:02:24;;;;;;;;;;;;;;;;;;5094602;28;20287;-33
2022/03/17 13:04:50;;;;;;;;;;;;;;;;;;5095119;28;19951;-31
2022/03/17 13:07:16;;;;;;;;;;;;;;;;;;5094785;28;19908;-33
2022/03/17 13:09:42;;;;;;;;;;;;;;;;;;5077017;28;19916;-36
2022/03/17 13:14:53;;;;;;;;;;;;;;;;;;5094828;28;19927;-32
2022/03/17 13:17:19;;;;;;;;;;;;;;;;;;5095306;28;19999;-33
2022/03/17 13:19:45;;;;;;;;;;;;;;;;;;5094970;28;19909;-32
2022/03/17 13:22:11;;;;;;;;;;;;;;;;;;5094979;28;19912;-33
2022/03/17 13:24:38;;;;;;;;;;;;;;;;;;5076989;28;20240;-32
2022/03/17 13:27:04;;;;;;;;;;;;;;;;;;5094651;28;19916;-32
2022/03/17 13:29:34;;;;;;;;;;;;;;;;;;5094936;28;19912;-32
2022/03/17 13:32:00;;;;;;;;;;;;;;;;;;5094638;28;19908;-32
2022/03/17 13:34:27;;;;;;;;;;;;;;;;;;5076890;28;20049;-32
2022/03/17 13:36:53;;;;;;;;;;;;;;;;;;5076898;28;20060;-32
2022/03/17 13:39:19;;;;;;;;;;;;;;;;;;5094690;28;19927;-33
2022/03/17 13:41:45;;;;;;;;;;;;;;;;;;5098255;28;19908;-35
2022/03/17 13:44:12;;;;;;;;;;;;;;;;;;5098365;28;20313;-32
2022/03/17 13:46:39;;;;;;;;;;;;;;;;;;5098461;28;20281;-32
2022/03/17 13:49:05;;;;;;;;;;;;;;;;;;5097858;28;19908;-32
2022/03/17 13:51:31;;;;;;;;;;;;;;;;;;5098286;28;20003;-33
2022/03/17 13:53:57;;;;;;;;;;;;;;;;;;5097522;28;19973;-33
2022/03/17 13:56:23;;;;;;;;;;;;;;;;;;5098116;28;19912;-33
2022/03/17 13:58:49;;;;;;;;;;;;;;;;;;5097477;28;19912;-32
2022/03/17 14:01:15;;;;;;;;;;;;;;;;;;5097499;28;19912;-32
2022/03/17 14:03:41;;;;;;;;;;;;;;;;;;5097005;28;19920;-33
2022/03/17 14:06:08;;;;;;;;;;;;;;;;;;5097225;28;19912;-33
2022/03/17 14:08:34;;;;;;;;;;;;;;;;;;5097170;28;20418;-35
2022/03/17 14:11:00;;;;;;;;;;;;;;;;;;5097945;28;19912;-34
2022/03/17 14:13:26;;;;;;;;;;;;;;;;;;5097321;28;19915;-31
2022/03/17 14:15:52;;;;;;;;;;;;;;;;;;5098026;28;19941;-32
2022/03/17 14:18:18;;;;;;;;;;;;;;;;;;5097785;28;20357;-33
2022/03/17 14:20:44;;;;;;;;;;;;;;;;;;5079471;28;20311;-32
2022/03/17 14:25:55;;;;;;;;;;;;;;;;;;5097288;28;19920;-31
2022/03/17 14:28:21;;;;;;;;;;;;;;;;;;5079362;28;19923;-32
2022/03/17 14:30:47;;;;;;;;;;;;;;;;;;5097134;28;19920;-33
2022/03/17 14:33:13;;;;;;;;;;;;;;;;;;5097341;28;20318;-31
2022/03/17 14:35:39;;;;;;;;;;;;;;;;;;5096925;28;19924;-33
2022/03/17 14:38:05;;;;;;;;;;;;;;;;;;5096985;28;19935;-33
2022/03/17 14:40:31;;;;;;;;;;;;;;;;;;5096875;28;19912;-33
2022/03/17 14:42:57;;;;;;;;;;;;;;;;;;5096718;28;19908;-33
2022/03/17 14:45:23;;;;;;;;;;;;;;;;;;5096712;28;19912;-33
2022/03/17 14:47:49;;;;;;;;;;;;;;;;;;5096765;28;19919;-33
2022/03/17 14:50:15;;;;;;;;;;;;;;;;;;5096643;28;20246;-33
2022/03/17 14:52:41;;;;;;;;;;;;;;;;;;5078739;28;19908;-32
2022/03/17 14:55:07;;;;;;;;;;;;;;;;;;5096546;28;19916;-36
2022/03/17 14:57:34;;;;;;;;;;;;;;;;;;5096697;28;20031;-32
2022/03/17 15:00:02;;;;;;;;;;;;;;;;;;5096863;28;19923;-32
2022/03/17 15:02:28;;;;;;;;;;;;;;;;;;5078585;28;19916;-36
2022/03/17 15:04:54;;;;;;;;;;;;;;;;;;5096502;28;19923;-34
2022/03/17 15:07:20;;;;;;;;;;;;;;;;;;5096884;28;19999;-32
2022/03/17 15:09:46;;;;;;;;;;;;;;;;;;5078558;28;19912;-35
2022/03/17 15:12:12;;;;;;;;;;;;;;;;;;5096693;28;19987;-35
2022/03/17 15:14:38;;;;;;;;;;;;;;;;;;5096213;28;20014;-34
2022/03/17 15:17:04;;;;;;;;;;;;;;;;;;5096265;28;20315;-32
2022/03/17 15:19:30;;;;;;;;;;;;;;;;;;5096270;28;19965;-32
2022/03/17 15:21:56;;;;;;;;;;;;;;;;;;5096384;28;19912;-32
2022/03/17 15:24:23;;;;;;;;;;;;;;;;;;5096048;28;19987;-32
2022/03/17 15:26:49;;;;;;;;;;;;;;;;;;5096292;28;19993;-33
2022/03/17 15:32:00;;;;;;;;;;;;;;;;;;5095893;28;19958;-34
2022/03/17 15:34:26;;;;;;;;;;;;;;;;;;5077789;28;19978;-31
2022/03/17 15:36:52;;;;;;;;;;;;;;;;;;5096820;28;20005;-32
2022/03/17 15:39:18;;;;;;;;;;;;;;;;;;5096002;28;20338;-33
2022/03/17 15:41:46;;;;;;;;;;;;;;;;;;5095910;28;19974;-32
2022/03/17 15:44:12;;;;;;;;;;;;;;;;;;5096580;28;20284;-29
2022/03/17 15:46:39;;;;;;;;;;;;;;;;;;5096343;28;20412;-32
2022/03/17 15:49:05;;;;;;;;;;;;;;;;;;5095699;28;20348;-31
2022/03/17 15:51:31;;;;;;;;;;;;;;;;;;5095571;28;19912;-32
2022/03/17 15:53:57;;;;;;;;;;;;;;;;;;5095476;28;20002;-31
2022/03/17 15:56:23;;;;;;;;;;;;;;;;;;5095476;28;20365;-34
2022/03/17 15:58:49;;;;;;;;;;;;;;;;;;5095768;28;19950;-32
2022/03/17 16:01:18;;;;;;;;;;;;;;;;;;5095502;28;19912;-33
2022/03/17 16:03:44;;;;;;;;;;;;;;;;;;5094589;28;19950;-36
2022/03/17 16:06:10;;;;;;;;;;;;;;;;;;5095950;28;19916;-32
2022/03/17 16:08:36;;;;;;;;;;;;;;;;;;5095456;28;19972;-38
2022/03/17 16:16:31;;;;;;;;;;;;;;;;;;5095766;28;19963;-33
2022/03/17 16:18:58;;;;;;;;;;;;;;;;;;5095311;28;20358;-33
2022/03/17 16:21:27;;;;;;;;;;;;;;;;;;5095236;28;19916;-34
2022/03/17 16:23:53;;;;;;;;;;;;;;;;;;5095157;28;19908;-33
2022/03/17 16:26:19;;;;;;;;;;;;;;;;;;5095194;28;19911;-33
2022/03/17 16:28:46;;;;;;;;;;;;;;;;;;5095207;28;20246;-32
2022/03/17 16:31:13;;;;;;;;;;;;;;;;;;5095009;28;19911;-34
2022/03/17 16:33:39;;;;;;;;;;;;;;;;;;5094904;28;19909;-32
2022/03/17 16:36:06;;;;;;;;;;;;;;;;;;5095072;28;19912;-31
2022/03/17 16:38:32;;;;;;;;;;;;;;;;;;5095327;28;20018;-33
2022/03/17 16:40:58;;;;;;;;;;;;;;;;;;5095089;28;20436;-31
2022/03/17 16:43:24;;;;;;;;;;;;;;;;;;5095473;28;19912;-33
2022/03/17 16:45:51;;;;;;;;;;;;;;;;;;5095666;28;20258;-31
2022/03/17 16:48:17;;;;;;;;;;;;;;;;;;5094961;28;19912;-32
2022/03/17 16:50:43;;;;;;;;;;;;;;;;;;5095217;28;19912;-31
2022/03/17 16:53:09;;;;;;;;;;;;;;;;;;5077053;28;19908;-32
2022/03/17 16:55:35;;;;;;;;;;;;;;;;;;5095674;28;19916;-30
2022/03/17 16:58:03;;;;;;;;;;;;;;;;;;5095491;28;19912;-33
2022/03/17 17:00:29;;;;;;;;;;;;;;;;;;5094832;28;20002;-31
2022/03/17 17:02:55;;;;;;;;;;;;;;;;;;5094567;28;19920;-31
2022/03/17 17:05:22;;;;;;;;;;;;;;;;;;5095301;28;19912;-32
2022/03/17 17:07:48;;;;;;;;;;;;;;;;;;5094787;28;20436;-31